Time;durP1;ratioP1;P1;durP2;ratioP2;P2;SDS_P1;SDS_P2;PMS_P1;PMS_P2;Temp;Humidity;BMP_temperature;BMP_pressure;BME280_temperature;BME280_humidity;BME280_pressure;Samples;Min_cycle;Max_cycle;Signal;HPM_P1;HPM_P2
2021/05/29 00:02:14;;;;;;;11.90;5.45;;;;;;;7.68;79.05;100084.72;5012881;28;20084;-60
2021/05/29 00:04:40;;;;;;;11.23;5.53;;;;;;;7.56;79.66;100085.31;5013490;28;20325;-60
2021/05/29 00:07:05;;;;;;;8.40;5.22;;;;;;;7.84;79.06;100079.00;5011437;28;20377;-60
2021/05/29 00:09:30;;;;;;;7.43;4.90;;;;;;;7.97;78.18;100079.00;5013009;28;20030;-59
2021/05/29 00:11:56;;;;;;;8.32;5.43;;;;;;;8.00;79.80;100085.78;5012668;28;20045;-60
2021/05/29 00:14:21;;;;;;;7.85;5.20;;;;;;;7.94;77.96;100095.44;5012974;28;20033;-60
2021/05/29 00:16:47;;;;;;;7.82;5.68;;;;;;;7.82;78.50;100081.06;5012647;28;20061;-60
2021/05/29 00:19:12;;;;;;;9.25;5.90;;;;;;;7.74;78.35;100094.59;5008377;28;20033;-60
2021/05/29 00:21:38;;;;;;;10.32;5.68;;;;;;;7.83;79.47;100095.22;5012800;28;20037;-60
2021/05/29 00:24:04;;;;;;;9.88;5.35;;;;;;;7.78;78.80;100095.81;5011755;28;20038;-60
2021/05/29 00:26:29;;;;;;;8.48;5.57;;;;;;;7.70;79.15;100096.00;5012640;28;20037;-59
2021/05/29 00:28:55;;;;;;;9.73;4.85;;;;;;;7.51;79.57;100103.78;5012979;28;20389;-59
2021/05/29 00:31:20;;;;;;;9.60;5.18;;;;;;;7.68;78.94;100096.19;5012802;28;20480;-59
2021/05/29 00:33:46;;;;;;;12.82;5.57;;;;;;;7.77;79.22;100094.19;5012870;28;20041;-59
2021/05/29 00:36:11;;;;;;;7.18;4.80;;;;;;;7.82;78.53;100094.41;5011138;28;20133;-59
2021/05/29 00:38:37;;;;;;;7.68;5.00;;;;;;;7.72;80.03;100107.31;5012809;28;20526;-60
2021/05/29 00:41:07;;;;;;;9.20;5.68;;;;;;;7.76;79.92;100108.53;5011226;28;20484;-59
2021/05/29 00:43:33;;;;;;;;;;;;;;;7.71;79.34;100111.84;5013409;28;20034;-59
2021/05/29 00:45:59;;;;;;;7.32;5.32;;;;;;;7.54;79.49;100116.72;5012315;28;19918;-61
2021/05/29 00:48:24;;;;;;;10.43;5.85;;;;;;;7.44;80.36;100104.75;5012740;28;20034;-59
2021/05/29 00:50:49;;;;;;;9.70;5.57;;;;;;;7.53;79.66;100104.38;5012389;28;20411;-61
2021/05/29 00:53:16;;;;;;;9.35;5.68;;;;;;;7.65;79.87;100101.13;5012586;28;20030;-58
2021/05/29 00:55:42;;;;;;;7.20;5.60;;;;;;;7.56;80.28;100104.00;5012335;28;20490;-61
2021/05/29 00:58:07;;;;;;;7.35;5.20;;;;;;;7.42;80.06;100101.50;5012483;28;20046;-61
2021/05/29 01:00:33;;;;;;;10.73;5.93;;;;;;;7.34;81.68;100100.66;5012219;28;20041;-61
2021/05/29 01:02:58;;;;;;;8.45;5.60;;;;;;;7.42;80.98;100106.81;5012507;28;20096;-59
2021/05/29 01:05:24;;;;;;;9.15;5.60;;;;;;;7.39;80.94;100110.72;5012291;28;20033;-59
2021/05/29 01:07:51;;;;;;;9.55;5.45;;;;;;;7.33;81.49;100114.16;5015606;28;20483;-59
2021/05/29 01:10:17;;;;;;;12.93;6.07;;;;;;;7.39;83.17;100118.72;5015592;28;20159;-60
2021/05/29 01:12:43;;;;;;;9.43;6.43;;;;;;;7.36;81.39;100124.44;5016195;28;20097;-59
2021/05/29 01:15:09;;;;;;;9.52;5.07;;;;;;;7.15;81.18;100116.56;5015726;28;20375;-59
2021/05/29 01:17:34;;;;;;;12.20;6.20;;;;;;;7.11;81.96;100113.44;5015920;28;20480;-59
2021/05/29 01:20:00;;;;;;;9.98;5.93;;;;;;;7.42;81.34;100118.31;5015950;28;20037;-59
2021/05/29 01:22:44;;;;;;;12.00;6.65;;;;;;;7.43;81.00;100119.13;5015487;28;20038;-59
2021/05/29 01:25:14;;;;;;;8.77;5.90;;;;;;;7.33;82.65;100116.81;5015095;28;20510;-59
2021/05/29 01:27:39;;;;;;;11.98;7.22;;;;;;;7.05;82.21;100108.94;5015717;28;20029;-59
2021/05/29 01:30:05;;;;;;;10.00;7.22;;;;;;;7.36;81.39;100108.44;5015251;28;20033;-60
2021/05/29 01:32:33;;;;;;;12.10;6.57;;;;;;;7.45;80.83;100109.91;5015592;28;20033;-59
2021/05/29 01:35:09;;;;;;;11.68;6.90;;;;;;;7.33;81.78;100103.50;5015442;28;20464;-59
2021/05/29 01:37:36;;;;;;;12.20;6.22;;;;;;;7.32;82.42;100105.34;5015375;28;20053;-59
2021/05/29 01:40:02;;;;;;;8.93;6.10;;;;;;;7.38;82.40;100106.38;5013906;28;20033;-59
2021/05/29 01:42:29;;;;;;;12.18;5.93;;;;;;;7.38;83.61;100106.38;5015382;28;20018;-59
2021/05/29 01:44:54;;;;;;;10.68;5.40;;;;;;;7.13;80.75;100109.56;5014300;28;20026;-60
2021/05/29 01:47:19;;;;;;;9.00;5.70;;;;;;;6.91;81.03;100108.03;5013808;28;20504;-59
2021/05/29 01:49:45;;;;;;;8.70;5.82;;;;;;;6.77;82.01;100109.00;5015398;28;20022;-59
2021/05/29 01:52:10;;;;;;;7.57;5.50;;;;;;;6.66;81.33;100113.84;5015045;28;20042;-60
2021/05/29 01:54:36;;;;;;;7.60;5.40;;;;;;;6.53;81.84;100113.75;5015363;28;20026;-59
2021/05/29 01:57:01;;;;;;;9.43;5.78;;;;;;;6.50;82.00;100114.13;5014764;28;20057;-59
2021/05/29 01:59:27;;;;;;;11.70;5.80;;;;;;;6.38;82.07;100108.50;5014751;28;20486;-59
2021/05/29 02:01:52;;;;;;;9.80;6.65;;;;;;;6.39;83.65;100101.34;5014657;28;20049;-59
2021/05/29 02:04:17;;;;;;;13.35;7.03;;;;;;;6.55;83.61;100111.72;5014981;28;20041;-59
2021/05/29 02:06:43;;;;;;;11.95;7.00;;;;;;;6.58;83.90;100116.63;5014586;28;20034;-59
2021/05/29 02:09:08;;;;;;;10.82;6.88;;;;;;;6.70;84.03;100109.75;5015088;28;20037;-59
2021/05/29 02:11:34;;;;;;;11.50;6.57;;;;;;;6.80;83.53;100108.59;5014464;28;20053;-59
2021/05/29 02:13:59;;;;;;;10.10;6.60;;;;;;;6.82;84.14;100109.22;5014975;28;20040;-59
2021/05/29 02:16:25;;;;;;;11.88;7.00;;;;;;;6.81;83.44;100099.56;5014412;28;20058;-59
2021/05/29 02:18:50;;;;;;;11.80;6.97;;;;;;;6.85;84.10;100106.16;5014697;28;20022;-59
2021/05/29 02:21:16;;;;;;;12.80;7.30;;;;;;;6.87;83.61;100099.59;5013342;28;20038;-59
2021/05/29 02:23:48;;;;;;;9.63;6.78;;;;;;;6.76;84.11;100096.66;5012226;28;20362;-59
2021/05/29 02:26:19;;;;;;;11.48;7.43;;;;;;;6.82;83.69;100099.38;5014435;28;20046;-59
2021/05/29 02:28:47;;;;;;;10.10;6.55;;;;;;;7.03;82.69;100100.28;5014666;28;20112;-59
2021/05/29 02:31:12;;;;;;;9.80;7.25;;;;;;;6.94;83.13;100109.47;5014087;28;20034;-59
2021/05/29 02:33:38;;;;;;;10.18;6.85;;;;;;;6.85;82.98;100103.50;5014676;28;20045;-59
2021/05/29 02:36:04;;;;;;;11.23;7.22;;;;;;;6.75;83.26;100100.34;5014225;28;20125;-59
2021/05/29 02:38:29;;;;;;;10.02;7.35;;;;;;;6.83;82.71;100105.53;5014241;28;20026;-59
2021/05/29 02:40:56;;;;;;;11.02;7.00;;;;;;;6.79;82.86;100107.78;5014128;28;20098;-59
2021/05/29 02:43:21;;;;;;;10.18;6.93;;;;;;;6.78;85.53;100103.44;5014177;28;20034;-59
2021/05/29 02:45:47;;;;;;;11.00;7.00;;;;;;;6.70;82.67;100095.63;5013758;28;20037;-59
2021/05/29 02:48:13;;;;;;;9.57;7.13;;;;;;;6.75;82.12;100095.03;5014156;28;20034;-59
2021/05/29 02:50:39;;;;;;;10.18;7.05;;;;;;;6.54;81.83;100099.41;5013849;28;20038;-60
2021/05/29 02:53:05;;;;;;;10.98;6.80;;;;;;;6.47;82.63;100099.38;5014221;28;20036;-59
2021/05/29 02:55:30;;;;;;;11.75;6.70;;;;;;;6.50;82.22;100095.50;5013715;28;20049;-59
2021/05/29 02:57:57;;;;;;;14.68;7.03;;;;;;;6.49;82.50;100091.19;5013748;28;20026;-59
2021/05/29 03:00:24;;;;;;;9.75;6.72;;;;;;;6.47;82.97;100088.72;5013538;28;20124;-59
2021/05/29 03:02:50;;;;;;;8.68;6.53;;;;;;;6.50;82.73;100094.66;5013971;28;20057;-59
2021/05/29 03:05:15;;;;;;;13.80;6.57;;;;;;;6.43;82.26;100097.28;5013858;28;20032;-59
2021/05/29 03:07:41;;;;;;;11.90;6.47;;;;;;;6.28;82.37;100093.91;5013951;28;20033;-59
2021/05/29 03:10:07;;;;;;;9.32;6.35;;;;;;;6.33;83.91;100097.63;5012071;28;20460;-59
2021/05/29 03:12:38;;;;;;;9.93;6.25;;;;;;;6.41;83.00;100109.97;5012516;28;20030;-59
2021/05/29 03:15:08;;;;;;;9.32;6.25;;;;;;;6.42;84.30;100104.44;5013297;28;20029;-59
2021/05/29 03:17:34;;;;;;;7.55;6.45;;;;;;;6.26;83.20;100108.22;5014001;28;20105;-59
2021/05/29 03:19:59;;;;;;;8.48;5.75;;;;;;;6.37;83.53;100103.41;5012587;28;20030;-59
2021/05/29 03:22:25;;;;;;;10.13;5.80;;;;;;;6.41;83.16;100108.13;5013231;28;20038;-59
2021/05/29 03:24:50;;;;;;;12.50;5.90;;;;;;;6.45;83.32;100101.41;5013791;28;20034;-59
2021/05/29 03:27:18;;;;;;;8.80;5.63;;;;;;;6.40;82.58;100097.69;5013160;28;20092;-59
2021/05/29 03:29:44;;;;;;;9.15;5.85;;;;;;;6.50;82.91;100102.66;5013001;28;20105;-59
2021/05/29 03:32:10;;;;;;;11.50;6.03;;;;;;;6.46;82.33;100102.22;5013096;28;20500;-59
2021/05/29 03:34:35;;;;;;;11.52;5.63;;;;;;;6.59;82.56;100107.66;5012390;28;20030;-60
2021/05/29 03:37:00;;;;;;;8.25;5.50;;;;;;;6.91;80.72;100116.88;5013058;28;20434;-60
2021/05/29 03:39:26;;;;;;;8.77;5.55;;;;;;;7.31;78.70;100110.88;5013341;28;20395;-59
2021/05/29 03:41:51;;;;;;;7.15;5.00;;;;;;;7.87;75.24;100109.81;5013019;28;20037;-59
2021/05/29 03:44:17;;;;;;;9.77;5.10;;;;;;;7.74;76.67;100113.28;5013307;28;20092;-59
2021/05/29 03:46:42;;;;;;;7.75;5.28;;;;;;;8.46;72.33;100125.03;5013072;28;20416;-60
2021/05/29 03:49:08;;;;;;;8.77;5.57;;;;;;;8.79;70.54;100129.53;5013117;28;20033;-59
2021/05/29 03:51:33;;;;;;;7.43;4.70;;;;;;;8.20;72.56;100131.19;5012982;28;20045;-59
2021/05/29 03:53:58;;;;;;;8.25;5.20;;;;;;;9.76;66.81;100129.56;5013191;28;20029;-60
2021/05/29 03:56:24;;;;;;;5.88;4.93;;;;;;;10.09;64.86;100124.81;5012831;28;20038;-60
2021/05/29 03:58:50;;;;;;;9.18;5.22;;;;;;;10.19;63.99;100126.22;5013030;28;20057;-59
2021/05/29 04:01:15;;;;;;;5.95;4.70;;;;;;;11.36;59.84;100145.09;5012686;28;20037;-59
2021/05/29 04:03:41;;;;;;;8.10;5.30;;;;;;;11.34;59.59;100142.63;5013459;28;20420;-59
2021/05/29 04:06:06;;;;;;;8.10;4.35;;;;;;;13.08;56.94;100149.69;5012807;28;20042;-59
2021/05/29 04:08:31;;;;;;;8.65;4.70;;;;;;;13.14;53.60;100150.59;5013187;28;20026;-60
2021/05/29 04:10:57;;;;;;;7.22;4.60;;;;;;;12.98;54.19;100141.38;5012726;28;20030;-60
2021/05/29 04:13:22;;;;;;;8.05;4.00;;;;;;;12.95;54.77;100147.22;5013523;28;20033;-60
2021/05/29 04:15:48;;;;;;;7.00;4.28;;;;;;;14.22;50.28;100143.50;5012638;28;20088;-60
2021/05/29 04:18:13;;;;;;;9.95;4.70;;;;;;;13.71;51.77;100145.31;5012942;28;20029;-60
2021/05/29 04:20:38;;;;;;;7.15;4.57;;;;;;;14.44;49.89;100143.59;5012529;28;20088;-60
2021/05/29 04:23:04;;;;;;;7.18;4.47;;;;;;;15.20;47.56;100155.78;5013016;28;20072;-60
2021/05/29 04:25:29;;;;;;;7.65;4.38;;;;;;;14.59;48.73;100153.84;5012579;28;20049;-60
2021/05/29 04:27:55;;;;;;;6.38;4.72;;;;;;;15.68;45.75;100154.22;5010732;28;20022;-60
2021/05/29 04:30:22;;;;;;;7.35;4.07;;;;;;;16.18;44.06;100151.22;5011546;28;20069;-60
2021/05/29 04:32:48;;;;;;;7.18;3.90;;;;;;;15.56;45.58;100154.34;5013047;28;20052;-60
2021/05/29 04:35:14;;;;;;;7.35;4.13;;;;;;;15.67;45.84;100155.28;5012535;28;20487;-60
2021/05/29 04:37:40;;;;;;;7.78;4.30;;;;;;;16.35;44.13;100161.13;5013014;28;20384;-60
2021/05/29 04:40:07;;;;;;;5.78;3.90;;;;;;;15.37;46.33;100158.44;5012469;28;20030;-60
2021/05/29 04:42:32;;;;;;;5.90;3.60;;;;;;;16.09;44.66;100168.97;5014479;28;20030;-60
2021/05/29 04:44:58;;;;;;;6.15;3.67;;;;;;;17.00;43.17;100162.69;5016842;28;20025;-60
2021/05/29 04:47:23;;;;;;;8.82;3.90;;;;;;;17.12;43.21;100158.94;5014912;28;20034;-60
2021/05/29 04:49:48;;;;;;;4.97;3.47;;;;;;;17.96;41.08;100162.53;5015438;28;20030;-60
2021/05/29 04:52:14;;;;;;;6.80;3.92;;;;;;;17.38;42.59;100155.28;5016141;28;20042;-60
2021/05/29 04:54:39;;;;;;;5.93;3.40;;;;;;;18.19;40.22;100161.19;5016549;28;20045;-60
2021/05/29 04:57:05;;;;;;;6.88;3.72;;;;;;;18.30;39.93;100157.41;5015838;28;20483;-60
2021/05/29 04:59:31;;;;;;;6.07;3.72;;;;;;;18.30;40.56;100165.56;5016267;28;20077;-60
2021/05/29 05:01:56;;;;;;;6.35;3.78;;;;;;;17.82;40.69;100168.47;5015969;28;20038;-60
2021/05/29 05:04:22;;;;;;;5.72;3.67;;;;;;;18.70;39.43;100172.88;5016434;28;20030;-60
2021/05/29 05:06:47;;;;;;;5.95;3.53;;;;;;;18.05;40.69;100172.59;5015882;28;20419;-60
2021/05/29 05:09:13;;;;;;;7.13;3.33;;;;;;;18.64;39.53;100170.44;5016176;28;20030;-60
2021/05/29 05:11:38;;;;;;;5.05;3.70;;;;;;;19.31;38.03;100182.81;5015897;28;20049;-61
2021/05/29 05:14:04;;;;;;;7.32;3.95;;;;;;;19.00;38.90;100176.66;5016018;28;20030;-61
2021/05/29 05:16:29;;;;;;;7.63;3.78;;;;;;;20.22;36.54;100186.19;5015582;28;20042;-60
2021/05/29 05:18:55;;;;;;;5.05;3.58;;;;;;;20.40;35.88;100186.59;5015954;28;20026;-60
2021/05/29 05:21:21;;;;;;;6.43;3.83;;;;;;;20.24;36.16;100183.16;5015567;28;20034;-61
2021/05/29 05:23:50;;;;;;;6.68;3.50;;;;;;;19.97;36.77;100189.88;5015995;28;20025;-60
2021/05/29 05:26:15;;;;;;;7.35;4.15;;;;;;;19.73;37.87;100184.28;5015314;28;20396;-60
2021/05/29 05:28:40;;;;;;;6.15;3.80;;;;;;;19.54;37.90;100181.34;5014583;28;20029;-60
2021/05/29 05:31:06;;;;;;;7.30;3.80;;;;;;;20.99;35.74;100184.72;5015268;28;20041;-60
2021/05/29 05:33:37;;;;;;;5.97;3.53;;;;;;;20.32;36.86;100188.00;5015724;28;20026;-60
2021/05/29 05:36:03;;;;;;;7.32;3.50;;;;;;;21.14;35.05;100189.19;5015349;28;20034;-60
2021/05/29 05:38:28;;;;;;;6.00;3.53;;;;;;;21.67;34.06;100192.69;5015756;28;20030;-60
2021/05/29 05:40:54;;;;;;;6.32;3.85;;;;;;;22.68;32.73;100201.56;5015164;28;20522;-60
2021/05/29 05:43:19;;;;;;;7.15;3.78;;;;;;;19.48;38.16;100195.25;5015497;28;20034;-61
2021/05/29 05:45:45;;;;;;;6.47;3.58;;;;;;;20.30;36.21;100201.09;5015128;28;20041;-61
2021/05/29 05:48:10;;;;;;;5.03;3.63;;;;;;;20.74;35.27;100196.66;5015548;28;20037;-60
2021/05/29 05:50:51;;;;;;;6.78;3.40;;;;;;;21.35;34.38;100203.41;5015202;28;20041;-60
2021/05/29 05:53:16;;;;;;;6.90;3.78;;;;;;;19.86;37.52;100201.91;5015074;28;20030;-61
2021/05/29 05:55:42;;;;;;;6.32;3.67;;;;;;;20.45;36.02;100198.25;5015262;28;20381;-61
2021/05/29 05:58:07;;;;;;;8.50;3.95;;;;;;;20.16;37.44;100203.63;5015289;28;20481;-61
2021/05/29 06:00:32;;;;;;;8.45;3.85;;;;;;;21.33;35.38;100207.22;5014899;28;20488;-61
2021/05/29 06:02:58;;;;;;;7.80;3.72;;;;;;;22.89;32.85;100211.06;5015278;28;20038;-61
2021/05/29 06:05:25;;;;;;;7.38;3.60;;;;;;;22.12;33.54;100214.19;5014730;28;20049;-61
2021/05/29 06:07:50;;;;;;;7.55;3.70;;;;;;;23.39;31.29;100213.97;5015043;28;20030;-61
2021/05/29 06:10:16;;;;;;;9.77;3.58;;;;;;;23.66;30.79;100215.88;5014702;28;20029;-61
2021/05/29 06:12:46;;;;;;;6.85;3.92;;;;;;;23.33;32.00;100220.63;5015272;28;20022;-60
2021/05/29 06:20:50;;;;;;;11.63;4.07;;;;;;;23.71;31.37;100225.88;4993387;28;20176;-61
2021/05/29 06:23:16;;;;;;;6.50;4.03;;;;;;;22.98;34.36;100231.13;5014727;28;20465;-61
2021/05/29 06:25:42;;;;;;;8.32;3.72;;;;;;;22.08;34.49;100233.06;5014237;28;20038;-61
2021/05/29 06:28:07;;;;;;;9.00;3.95;;;;;;;22.72;34.70;100229.94;5014695;28;20034;-61
2021/05/29 06:30:33;;;;;;;8.18;3.92;;;;;;;23.40;33.30;100237.44;5014240;28;20492;-61
2021/05/29 06:32:58;;;;;;;8.18;4.38;;;;;;;23.77;33.41;100237.59;5014389;28;20025;-61
2021/05/29 06:35:24;;;;;;;7.72;3.83;;;;;;;24.64;30.88;100252.88;5014277;28;20030;-61
2021/05/29 06:37:49;;;;;;;7.05;3.50;;;;;;;23.80;32.08;100245.97;5011633;28;20021;-61
2021/05/29 06:40:15;;;;;;;7.30;3.90;;;;;;;23.88;32.20;100248.00;5013718;28;20026;-61
2021/05/29 06:42:40;;;;;;;7.90;4.32;;;;;;;23.07;33.73;100239.47;5014518;28;20096;-61
2021/05/29 06:45:06;;;;;;;7.65;4.20;;;;;;;23.92;32.67;100241.94;5013909;28;20025;-61
2021/05/29 06:47:31;;;;;;;6.57;4.10;;;;;;;23.21;33.22;100248.50;5014275;28;20037;-61
2021/05/29 06:49:57;;;;;;;7.95;4.20;;;;;;;22.07;33.00;100245.09;5014181;28;20026;-61
2021/05/29 06:52:26;;;;;;;9.38;4.00;;;;;;;22.60;33.11;100244.06;5013898;28;20037;-60
2021/05/29 07:00:05;;;;;;;7.13;4.10;;;;;;;24.44;30.82;100250.59;5013637;28;20092;-60
2021/05/29 07:02:31;;;;;;;5.88;3.65;;;;;;;25.09;29.18;100252.03;5014005;28;20379;-60
2021/05/29 07:04:56;;;;;;;7.28;3.60;;;;;;;23.72;30.59;100257.63;5013431;28;20041;-62
2021/05/29 07:07:22;;;;;;;4.80;3.47;;;;;;;24.55;30.42;100254.75;5013708;28;20604;-61
2021/05/29 07:09:47;;;;;;;7.20;3.60;;;;;;;25.67;28.76;100251.00;5013852;28;20029;-61
2021/05/29 07:12:13;;;;;;;6.55;3.22;;;;;;;24.21;30.05;100250.59;5013446;28;20037;-61
2021/05/29 07:14:38;;;;;;;7.32;3.30;;;;;;;23.81;32.23;100253.09;5013728;28;20021;-61
2021/05/29 07:17:05;;;;;;;8.13;3.53;;;;;;;23.21;32.75;100247.66;5013481;28;20052;-61
2021/05/29 07:19:31;;;;;;;9.25;3.75;;;;;;;25.67;29.80;100250.19;5013952;28;20026;-61
2021/05/29 07:21:56;;;;;;;17.05;3.80;;;;;;;23.99;31.90;100247.75;5013555;28;20061;-61
2021/05/29 07:24:22;;;;;;;13.85;3.65;;;;;;;24.93;30.16;100254.34;5013599;28;20444;-61
2021/05/29 07:26:47;;;;;;;12.45;3.50;;;;;;;25.85;29.04;100246.38;5012929;28;20057;-61
2021/05/29 07:29:13;;;;;;;13.80;2.97;;;;;;;26.12;28.16;100249.97;5013384;28;20380;-61
2021/05/29 07:31:38;;;;;;;13.50;3.13;;;;;;;26.19;27.54;100247.56;5013005;28;20392;-61
2021/05/29 07:34:04;;;;;;;13.70;3.30;;;;;;;26.55;27.80;100246.44;5013390;28;20033;-61
2021/05/29 07:36:29;;;;;;;8.48;2.85;;;;;;;25.83;28.35;100248.59;5012970;28;20554;-61
2021/05/29 07:38:55;;;;;;;6.28;2.80;;;;;;;25.63;28.67;100247.25;5013261;28;20030;-61
2021/05/29 07:41:21;;;;;;;8.40;3.33;;;;;;;24.85;29.61;100253.16;5012822;28;20045;-61
2021/05/29 07:43:46;;;;;;;11.95;3.00;;;;;;;25.50;28.90;100251.75;5012147;28;20022;-61
2021/05/29 07:46:12;;;;;;;7.25;3.00;;;;;;;25.85;27.63;100251.88;5012991;28;20045;-61
2021/05/29 07:48:38;;;;;;;9.20;2.85;;;;;;;25.73;28.19;100252.44;5011863;28;20384;-61
2021/05/29 07:51:03;;;;;;;7.18;2.78;;;;;;;26.37;27.44;100251.91;5012740;28;20038;-61
2021/05/29 07:53:31;;;;;;;11.70;2.90;;;;;;;25.78;27.89;100251.50;5013157;28;20029;-61
2021/05/29 07:55:57;;;;;;;8.63;3.10;;;;;;;25.24;29.30;100254.38;5012768;28;20034;-61
2021/05/29 07:58:22;;;;;;;9.07;2.88;;;;;;;26.52;26.94;100255.31;5012948;28;20046;-61
2021/05/29 08:00:51;;;;;;;11.52;3.00;;;;;;;25.60;28.34;100251.44;5012581;28;20084;-61
2021/05/29 08:03:20;;;;;;;;;;;;;;;25.53;27.73;100258.53;5013228;28;20480;-61
2021/05/29 08:05:46;;;;;;;;;;;;;;;25.40;27.76;100263.00;5013141;28;19917;-61
2021/05/29 08:08:12;;;;;;;5.00;2.10;;;;;;;20.53;34.74;100258.66;5013034;28;19914;-61
2021/05/29 08:10:37;;;;;;;4.72;2.28;;;;;;;24.21;29.25;100250.59;5012349;28;20034;-63
2021/05/29 08:13:03;;;;;;;2.97;1.67;;;;;;;24.32;27.44;100257.44;5013185;28;20068;-62
2021/05/29 08:15:28;;;;;;;6.47;2.28;;;;;;;22.02;30.99;100247.88;5013355;28;20038;-61
2021/05/29 08:17:54;;;;;;;3.45;2.15;;;;;;;23.80;28.25;100251.47;5017367;28;20034;-62
2021/05/29 08:20:19;;;;;;;3.17;1.92;;;;;;;23.78;29.14;100252.88;5016879;28;20484;-61
2021/05/29 08:22:45;;;;;;;3.55;1.90;;;;;;;23.79;28.84;100251.75;5017447;28;20029;-61
2021/05/29 08:25:11;;;;;;;6.22;2.00;;;;;;;24.15;28.80;100251.00;5016430;28;20038;-61
2021/05/29 08:27:36;;;;;;;2.63;1.90;;;;;;;25.58;26.24;100253.69;5016779;28;20014;-61
2021/05/29 08:30:02;;;;;;;4.72;2.00;;;;;;;24.14;27.86;100250.19;5016313;28;20034;-60
2021/05/29 08:32:28;;;;;;;3.92;2.30;;;;;;;24.83;27.28;100249.13;5016687;28;20029;-61
2021/05/29 08:34:53;;;;;;;2.95;1.80;;;;;;;23.60;26.84;100251.84;5016688;28;20022;-61
2021/05/29 08:37:18;;;;;;;3.60;2.00;;;;;;;22.51;28.60;100254.81;5016185;28;20037;-60
2021/05/29 08:39:44;;;;;;;3.70;2.20;;;;;;;22.39;30.64;100257.22;5013476;28;20034;-60
2021/05/29 08:42:09;;;;;;;3.67;1.83;;;;;;;23.99;27.65;100258.72;5015006;28;20052;-61
2021/05/29 08:44:35;;;;;;;5.97;2.00;;;;;;;23.45;29.34;100255.69;5016863;28;20026;-60
2021/05/29 08:47:02;;;;;;;5.00;2.00;;;;;;;24.95;28.57;100263.06;5014719;28;20045;-61
2021/05/29 08:49:27;;;;;;;5.55;2.40;;;;;;;24.64;30.06;100263.84;5016550;28;20422;-60
2021/05/29 08:51:56;;;;;;;7.30;2.25;;;;;;;25.16;26.49;100263.34;5016008;28;20038;-60
2021/05/29 08:54:21;;;;;;;7.78;2.05;;;;;;;21.89;29.49;100256.78;5016421;28;20022;-61
2021/05/29 08:56:46;;;;;;;3.95;1.92;;;;;;;23.18;27.85;100267.41;5015982;28;20045;-60
2021/05/29 08:59:13;;;;;;;3.78;2.15;;;;;;;21.93;29.88;100260.56;5016335;28;20049;-60
2021/05/29 09:01:38;;;;;;;3.85;1.90;;;;;;;22.90;29.37;100259.13;5015735;28;20507;-60
2021/05/29 09:04:04;;;;;;;5.00;2.00;;;;;;;22.36;30.43;100263.25;5016413;28;20222;-61
2021/05/29 09:06:30;;;;;;;3.50;1.80;;;;;;;24.18;27.68;100256.66;5015833;28;20487;-60
2021/05/29 09:08:56;;;;;;;3.33;2.00;;;;;;;23.44;28.83;100248.63;5016021;28;20026;-60
2021/05/29 09:11:48;;;;;;;7.55;2.42;;;;;;;24.66;27.04;100261.59;5015723;28;20037;-60
2021/05/29 09:14:26;;;;;;;3.17;1.98;;;;;;;24.39;27.17;100265.22;5016238;28;20041;-60
2021/05/29 09:17:05;;;;;;;2.28;1.70;;;;;;;24.10;28.18;100271.09;5015676;28;20049;-60
2021/05/29 09:19:56;;;;;;;3.72;2.10;;;;;;;22.55;29.04;100266.00;5015927;28;20040;-60
2021/05/29 09:22:44;;;;;;;5.05;2.00;;;;;;;22.11;31.15;100262.47;5015275;28;20134;-61
2021/05/29 09:25:17;;;;;;;3.47;1.88;;;;;;;23.02;29.02;100259.50;5015433;28;20061;-60
2021/05/29 09:28:01;;;;;;;3.65;2.10;;;;;;;22.17;30.11;100277.69;5014888;28;20026;-60
2021/05/29 09:30:53;;;;;;;3.50;2.20;;;;;;;21.44;30.80;100269.88;5015058;28;20065;-60
2021/05/29 09:33:19;;;;;;;3.10;2.00;;;;;;;21.58;30.54;100259.91;5013607;28;20049;-60
2021/05/29 09:36:09;;;;;;;3.42;1.73;;;;;;;19.98;32.38;100261.44;5015210;28;20037;-61
2021/05/29 09:38:42;;;;;;;3.03;2.00;;;;;;;21.19;31.26;100255.38;5014747;28;20084;-62
2021/05/29 09:41:20;;;;;;;3.28;2.00;;;;;;;22.51;28.93;100265.75;5015199;28;20124;-61
2021/05/29 09:43:59;;;;;;;3.13;1.90;;;;;;;20.43;31.10;100264.97;5015548;28;20049;-61
2021/05/29 09:46:25;;;;;;;5.00;2.00;;;;;;;20.84;31.78;100262.78;5015138;28;20037;-61
2021/05/29 09:48:57;;;;;;;2.90;1.83;;;;;;;22.38;30.71;100261.06;5014019;28;20309;-61
2021/05/29 09:51:23;;;;;;;2.53;1.90;;;;;;;22.17;29.42;100255.06;5015014;28;20034;-61
2021/05/29 09:53:50;;;;;;;3.88;2.10;;;;;;;19.81;33.64;100256.34;5015379;28;20369;-59
2021/05/29 09:56:27;;;;;;;4.35;2.20;;;;;;;20.43;32.59;100264.97;5014682;28;20045;-60
2021/05/29 09:59:00;;;;;;;3.90;2.10;;;;;;;21.37;32.48;100263.91;5014803;28;20126;-60
2021/05/29 10:01:46;;;;;;;3.55;2.00;;;;;;;23.64;28.96;100252.88;5014562;28;20044;-60
2021/05/29 10:04:37;;;;;;;3.95;1.90;;;;;;;24.43;26.89;100263.47;5015109;28;20013;-60
2021/05/29 10:07:05;;;;;;;4.90;1.80;;;;;;;22.78;29.17;100261.50;5014762;28;20173;-60
2021/05/29 10:09:30;;;;;;;3.60;1.77;;;;;;;22.06;28.55;100265.28;5014775;28;20056;-60
2021/05/29 10:11:56;;;;;;;3.13;1.80;;;;;;;22.34;28.28;100257.28;5014381;28;20038;-60
2021/05/29 10:14:21;;;;;;;3.72;1.90;;;;;;;22.07;30.67;100263.38;5013504;28;20022;-60
2021/05/29 10:16:48;;;;;;;3.20;1.83;;;;;;;23.36;27.69;100246.56;5014204;28;20037;-60
2021/05/29 10:19:13;;;;;;;4.05;1.80;;;;;;;22.37;28.26;100264.91;5014651;28;20083;-60
2021/05/29 10:21:39;;;;;;;5.40;1.90;;;;;;;22.32;29.39;100259.50;5013080;28;20046;-60
2021/05/29 10:24:05;;;;;;;3.67;1.80;;;;;;;20.21;32.04;100251.78;5014524;28;20025;-60
2021/05/29 10:26:31;;;;;;;3.38;1.70;;;;;;;21.63;31.63;100251.66;5013926;28;20046;-60
2021/05/29 10:28:57;;;;;;;3.53;1.75;;;;;;;22.71;28.99;100247.41;5014608;28;20033;-60
2021/05/29 10:31:23;;;;;;;2.15;1.70;;;;;;;21.87;29.44;100251.63;5012703;28;20064;-61
2021/05/29 10:33:48;;;;;;;3.47;1.70;;;;;;;20.70;32.47;100245.47;5013208;28;20026;-60
2021/05/29 10:36:43;;;;;;;5.22;1.70;;;;;;;21.96;31.38;100249.03;5013960;28;20041;-60
2021/05/29 10:39:22;;;;;;;4.90;2.00;;;;;;;23.12;29.52;100249.50;5010251;28;20109;-60
2021/05/29 10:41:53;;;;;;;4.40;1.77;;;;;;;23.17;28.73;100249.41;5014057;28;20045;-60
2021/05/29 10:44:27;;;;;;;3.88;1.80;;;;;;;23.81;27.58;100253.09;5014251;28;20053;-60
2021/05/29 10:47:22;;;;;;;4.07;1.60;;;;;;;23.99;27.11;100240.38;5013906;28;20117;-60
2021/05/29 10:49:47;;;;;;;2.58;1.60;;;;;;;21.63;29.06;100232.56;5005135;28;20045;-60
2021/05/29 10:52:31;;;;;;;2.53;1.73;;;;;;;21.52;30.27;100233.78;5013746;28;20050;-62
2021/05/29 10:55:19;;;;;;;3.58;1.65;;;;;;;20.67;32.53;100224.25;5014083;28;20023;-60
2021/05/29 10:58:02;;;;;;;3.88;1.77;;;;;;;20.78;33.01;100224.97;5013910;28;20424;-60
2021/05/29 11:00:53;;;;;;;4.70;1.70;;;;;;;20.44;33.13;100232.03;5013519;28;20038;-60
2021/05/29 11:03:24;;;;;;;2.90;2.00;;;;;;;21.45;31.59;100228.69;5011834;28;20540;-60
2021/05/29 11:06:00;;;;;;;3.20;1.80;;;;;;;21.33;30.84;100230.97;5013282;28;20037;-60
2021/05/29 11:08:54;;;;;;;4.10;1.92;;;;;;;22.13;29.57;100221.25;5013900;28;20022;-60
2021/05/29 11:11:48;;;;;;;3.67;1.65;;;;;;;22.21;30.06;100222.53;5013553;28;20116;-60
2021/05/29 11:14:26;;;;;;;2.92;1.60;;;;;;;21.45;31.00;100216.97;5013674;28;20030;-60
2021/05/29 11:16:52;;;;;;;4.75;1.77;;;;;;;21.72;30.31;100217.16;5013221;28;20049;-60
2021/05/29 11:19:22;;;;;;;3.53;1.70;;;;;;;22.34;29.10;100221.78;5013792;28;20112;-62
2021/05/29 11:22:12;;;;;;;2.45;1.58;;;;;;;23.24;28.48;100211.53;5013327;28;20038;-62
2021/05/29 11:24:49;;;;;;;2.58;1.77;;;;;;;23.51;27.30;100204.41;5013510;28;20034;-62
2021/05/29 11:27:34;;;;;;;4.63;1.70;;;;;;;23.29;28.22;100211.44;5013176;28;20496;-62
2021/05/29 11:30:11;;;;;;;2.63;1.50;;;;;;;22.86;28.05;100206.16;5013446;28;20042;-61
2021/05/29 11:32:43;;;;;;;2.08;1.50;;;;;;;23.10;27.53;100207.97;5012542;28;20046;-62
2021/05/29 11:35:17;;;;;;;3.08;1.60;;;;;;;22.16;29.23;100207.81;5013012;28;20026;-60
2021/05/29 11:37:56;;;;;;;2.25;1.50;;;;;;;21.07;29.50;100208.63;5013695;28;20030;-60
2021/05/29 11:40:22;;;;;;;2.75;1.70;;;;;;;21.17;30.94;100207.69;5011772;28;20038;-60
2021/05/29 11:42:49;;;;;;;3.92;1.80;;;;;;;21.07;31.64;100205.91;5013224;28;20392;-60